Mendon, NY (14506)

10:17 PM EDT on April 20, 2015 (GMT -0400)
Mendon Golf Club | | Change Station
CLOSE
Current Station
Personal Weather Station
Location: Mendon, NY
Elevation: 587 ft
Nearby Weather Stations

Elev 587 ft 42.99 °N, 77.50 °W | Updated 27 seconds ago

Rain
Rain
54.5 °F
Feels Like 54.5 °F
N
0.9
Wind Variable Wind from WSW
Gusts 2.5 mph

Today
High -- | Low -- °F
--% Chance of Precip.
Yesterday
High -- | Low -- °F
Precip. -- in
6:20 AM 7:58 PM
Waxing Crescent, 7% visible
Pressure 29.53 in
Visibility 10.0 miles
Clouds Few 3300 ft
Scattered Clouds 4200 ft
Overcast 9000 ft
Dew Point 52 °F
Humidity 90%
Rainfall 0.46 in
Snow Depth Not available.
UV 0.0 out of 12
Pollen 3.40 out of 12
Air Quality Not available.
Flu Activity Widespread
METAR KROC 210154Z 25009KT 10SM FEW033 SCT042 OVC090 13/09 A2952 RMK AO2 RAE24 SLP000 P0001 T01280094

More Conditions Fewer Conditions

Pressure 29.53 in
Visibility 10.0 miles
Clouds Few 3300 ft
Scattered Clouds 4200 ft
Overcast 9000 ft
Dew Point 52 °F
Humidity 90%
Rainfall 0.46 in
Snow Depth Not available.
UV 0.0 out of 12
Pollen 3.40 out of 12
Air Quality Not available.
Flu Activity Widespread
METAR KROC 210154Z 25009KT 10SM FEW033 SCT042 OVC090 13/09 A2952 RMK AO2 RAE24 SLP000 P0001 T01280094

More Conditions Fewer Conditions

10-Day Weather Forecast

Almanac

Astronomy

Apr. 20, 2015 Rise Set
Actual Time
Civil Twilight
Nautical Twilight
Astronomical Twilight
Moon
Length of Visible Light
Length of Day
Tomorrow will be .
, % of the Moon is Illuminated

Today's Extremes

State Highs State Lows

Community

WunderPhotos

Upload Photos

1,815,278 photos uploaded!

WunderBlogs® & News

Nearby

Air Quality

  Air Quality AQ Index Pollutant
Not available.

Snow Depth

Station Depth Elevation

Earthquake Activity

City Distance Mag. Time & Date
Minimum magnitude displayed is 2.5.

Coastal Water Temperatures

Place Temperature

Stations

Nearby Weather Stations

Station Location Temp. Windchill Dew Point Humidity Wind Precip. Elev Updated Type